Aérodrome :
LOGIN :

S'inscrire | Disclaimer

   EN    FR    IT 

 










Légende :    VFR   VFR Marginal   IFR   IFR Intensif   IFR Très Intensif
Visi : 
Plafond : 
>= 8 km
>= 3000ft
5 à 8 km
1000 à 3000 ft
1500m à 5 km
500 à 1000 ft
800 à 1500m
200 à 500 ft
< 800m
< 200 ft
Symboles :   Orages  Brouillard  Fortes neiges  Fortes précipitations  Vent > 20 kt
SIGMETs :   Divers  Orages  Givrage  Turbulence  Onde Orograph.  Cendres Volcan.







- Altitude de l'aérodrome : 1910 ft
- Code IATA : RDZ
- Voir les cartes d'approche


LFCR - Rodez

DERNIER METAR :
  • 230730Z AUTO 22003KT CAVOK 03/01 Q1028 NOSIG

METARs EXPIRÉS :
  • 230700Z AUTO 12004KT 090V180 CAVOK 04/01 Q1028 NOSIG
  • 230630Z AUTO 07007KT CAVOK 05/02 Q1027 NOSIG
  • 230600Z AUTO 08005KT CAVOK 04/00 Q1028 NOSIG
  • 230530Z AUTO 10005KT CAVOK 04/02 Q1028 NOSIG
  • 230500Z AUTO 00000KT CAVOK 01/M00 Q1028 NOSIG

TAF TAF LFCR
Valide du 23 à 06h jusqu'au 24 à 06h UTC


230500Z 2306/2406 VRB02KT CAVOK
BECMG 2312/2314 28005KT
BECMG 2318/2320 15006KT
TEMPO 2402/2406 BKN020
Pas de NOTAMs connus pour ce terrain.



MET'MAP, la Météo Aéronautique d'un coup d'oeil ! - Copyright ORBIFLY Décembre 2007 - Disclaimer

ORBIFLY MET'MAP TEAM :

Programmation & Développement : Alexandra Zaïnal
Conception & Développement : Baudouin d'Aumeries
Co-Programmation & Développement : Marc-Olivier Méhu
Soutien technique & logistique : Manuel Goepfert

Contact : metmap@orbifly.com




SOURCES & CREDITS :

   NOAA